Time;durP1;ratioP1;P1;durP2;ratioP2;P2;SDS_P1;SDS_P2;PMS_P1;PMS_P2;Temp;Humidity;BMP_temperature;BMP_pressure;BME280_temperature;BME280_humidity;BME280_pressure;Samples;Min_cycle;Max_cycle;Signal;HPM_P1;HPM_P2
2022/06/02 00:02:25;;;;;;;5.47;2.95;;;21.00;58.70;;;;;;4909658;28;92310;-63
2022/06/02 00:05:50;;;;;;;5.00;3.05;;;20.90;58.70;;;;;;4907914;28;93239;-64
2022/06/02 00:08:30;;;;;;;7.18;3.10;;;20.90;58.80;;;;;;4904370;28;94253;-64
2022/06/02 00:11:13;;;;;;;4.43;2.97;;;20.90;58.80;;;;;;4908704;28;93816;-64
2022/06/02 00:13:51;;;;;;;4.80;2.92;;;20.90;58.80;;;;;;4908783;28;92929;-64
2022/06/02 00:16:25;;;;;;;4.68;2.47;;;20.90;58.70;;;;;;4908804;28;93051;-65
2022/06/02 00:18:56;;;;;;;4.47;2.70;;;20.90;58.80;;;;;;4909666;28;93261;-64
2022/06/02 00:21:40;;;;;;;5.05;3.05;;;20.90;58.80;;;;;;4908708;28;92904;-63
2022/06/02 00:24:15;;;;;;;3.78;2.65;;;20.90;58.80;;;;;;4907986;28;92211;-63
2022/06/02 00:26:59;;;;;;;4.22;2.85;;;20.90;58.80;;;;;;4908732;28;92674;-63
2022/06/02 00:29:45;;;;;;;4.03;2.78;;;20.90;58.70;;;;;;4908022;28;94252;-64
2022/06/02 00:32:32;;;;;;;4.45;2.90;;;20.90;58.60;;;;;;4909337;28;92655;-64
2022/06/02 00:35:10;;;;;;;5.35;2.67;;;20.90;58.70;;;;;;4923286;28;94188;-63
2022/06/02 00:37:48;;;;;;;4.03;2.67;;;20.90;58.60;;;;;;4909319;28;92075;-63
2022/06/02 00:40:14;;;;;;;6.32;3.28;;;20.90;58.60;;;;;;4908869;28;93269;-64
2022/06/02 00:43:05;;;;;;;4.55;2.70;;;20.90;58.70;;;;;;4909616;28;92364;-64
2022/06/02 00:45:31;;;;;;;3.95;2.40;;;20.90;58.60;;;;;;4909280;28;93265;-63
2022/06/02 00:48:16;;;;;;;4.57;2.33;;;20.90;58.50;;;;;;4908805;28;93138;-63
2022/06/02 00:51:00;;;;;;;4.25;2.70;;;20.90;58.60;;;;;;4908320;28;93291;-63
2022/06/02 00:53:40;;;;;;;6.43;2.97;;;20.90;58.50;;;;;;4908801;28;92006;-64
2022/06/02 00:59:43;;;;;;;4.40;2.70;;;20.90;59.20;;;;;;4908882;28;93090;-63
2022/06/02 01:02:09;;;;;;;4.15;2.38;;;20.90;58.40;;;;;;4908537;28;93629;-64
2022/06/02 01:04:37;;;;;;;7.00;2.80;;;20.90;58.50;;;;;;4908680;28;93674;-63
2022/06/02 01:07:18;;;;;;;5.03;2.47;;;20.80;58.40;;;;;;4908683;28;92849;-63
2022/06/02 01:10:02;;;;;;;5.53;2.78;;;20.80;58.40;;;;;;4907387;28;92507;-64
2022/06/02 01:12:51;;;;;;;4.82;2.53;;;20.80;58.40;;;;;;4907492;28;93741;-64
2022/06/02 01:15:25;;;;;;;4.13;2.67;;;20.80;58.30;;;;;;4907433;28;92998;-63
2022/06/02 01:18:25;;;;;;;4.53;2.65;;;20.80;58.30;;;;;;4906811;28;92736;-63
2022/06/02 01:21:01;;;;;;;5.18;2.88;;;20.80;58.30;;;;;;4908082;28;91967;-63
2022/06/02 01:23:45;;;;;;;3.20;2.20;;;20.80;58.10;;;;;;4907523;28;93227;-63
2022/06/02 01:26:29;;;;;;;5.45;3.30;;;20.80;58.30;;;;;;4907971;28;93063;-63
2022/06/02 01:29:20;;;;;;;4.63;2.40;;;20.80;58.30;;;;;;4908434;28;93988;-63
2022/06/02 01:32:14;;;;;;;3.80;2.53;;;20.80;58.30;;;;;;4907738;28;93065;-63
2022/06/02 01:35:07;;;;;;;3.42;2.42;;;20.80;58.10;;;;;;4906718;28;93806;-63
2022/06/02 01:37:39;;;;;;;3.38;2.45;;;20.80;58.40;;;;;;4908384;28;93182;-65
2022/06/02 01:40:23;;;;;;;3.53;2.40;;;20.80;58.40;;;;;;4909249;28;92898;-62
2022/06/02 01:43:12;;;;;;;3.78;2.20;;;20.80;58.50;;;;;;4908664;28;92051;-63
2022/06/02 01:46:00;;;;;;;3.90;2.50;;;20.70;58.40;;;;;;4908002;28;93047;-64
2022/06/02 01:48:36;;;;;;;4.43;2.50;;;20.70;58.40;;;;;;4911539;28;92362;-65
2022/06/02 01:51:30;;;;;;;3.85;2.53;;;20.80;58.30;;;;;;4911736;28;92704;-63
2022/06/02 01:54:53;;;;;;;3.50;2.50;;;20.80;58.40;;;;;;4901333;28;93021;-65
2022/06/02 01:57:47;;;;;;;3.35;1.95;;;20.70;58.20;;;;;;4869489;28;95466;-63
2022/06/02 02:00:18;;;;;;;4.10;2.10;;;20.80;58.30;;;;;;4868091;28;94524;-64
2022/06/02 02:02:49;;;;;;;4.50;2.63;;;20.80;58.20;;;;;;4898119;28;92537;-63
2022/06/02 02:05:33;;;;;;;4.07;2.35;;;20.70;58.20;;;;;;4911347;28;93389;-64
2022/06/02 02:08:08;;;;;;;3.17;2.00;;;20.70;58.20;;;;;;4910568;28;94528;-64
2022/06/02 02:10:52;;;;;;;3.30;2.30;;;20.80;58.20;;;;;;4909792;28;92696;-63
2022/06/02 02:13:48;;;;;;;4.05;1.98;;;20.80;58.20;;;;;;4911007;28;92474;-64
2022/06/02 02:16:39;;;;;;;3.10;2.08;;;20.70;58.30;;;;;;4911154;28;92270;-64
2022/06/02 02:19:04;;;;;;;4.25;2.75;;;20.70;58.40;;;;;;4910266;28;93246;-64
2022/06/02 02:21:44;;;;;;;3.15;2.20;;;20.70;58.10;;;;;;4910722;28;92987;-65
2022/06/02 02:24:46;;;;;;;4.78;2.80;;;20.70;58.00;;;;;;4910756;28;93400;-64
2022/06/02 02:27:21;;;;;;;3.85;2.50;;;20.70;58.20;;;;;;4911500;28;92161;-63
2022/06/02 02:30:00;;;;;;;3.90;2.28;;;20.70;58.10;;;;;;4911325;28;92503;-63
2022/06/02 02:32:46;;;;;;;2.85;2.10;;;20.70;58.20;;;;;;4910724;28;93394;-64
2022/06/02 02:35:25;;;;;;;3.20;1.90;;;20.70;58.10;;;;;;4911291;28;92985;-64
2022/06/02 02:37:58;;;;;;;3.97;2.50;;;20.70;58.10;;;;;;4910014;28;93039;-65
2022/06/02 02:40:38;;;;;;;3.00;2.20;;;20.60;58.10;;;;;;4909242;28;92688;-63
2022/06/02 02:43:25;;;;;;;3.95;2.10;;;20.70;57.90;;;;;;4910840;28;92855;-63
2022/06/02 02:46:01;;;;;;;3.15;1.85;;;20.60;58.00;;;;;;4911032;28;92558;-63
2022/06/02 02:48:41;;;;;;;3.85;2.50;;;20.70;58.00;;;;;;4925449;28;92771;-64
2022/06/02 02:51:38;;;;;;;2.70;1.98;;;20.70;58.00;;;;;;4910218;28;94135;-65
2022/06/02 02:54:27;;;;;;;2.67;2.20;;;20.60;58.00;;;;;;4910037;28;94224;-65
2022/06/02 02:57:02;;;;;;;2.53;2.20;;;20.70;58.00;;;;;;4910872;28;93086;-63
2022/06/02 02:59:48;;;;;;;2.15;1.90;;;20.70;58.00;;;;;;4909058;28;92537;-63
2022/06/02 03:02:36;;;;;;;3.28;2.20;;;20.60;57.90;;;;;;4909662;28;93174;-63
2022/06/02 03:05:14;;;;;;;2.85;2.00;;;20.70;58.00;;;;;;4902989;28;95825;-63
2022/06/02 03:07:40;;;;;;;2.88;2.13;;;20.70;58.00;;;;;;4909066;28;92887;-64
2022/06/02 03:10:21;;;;;;;2.42;1.95;;;20.70;58.00;;;;;;4910932;28;92775;-63
2022/06/02 03:13:05;;;;;;;2.25;1.92;;;20.70;58.00;;;;;;4910583;28;93685;-64
2022/06/02 03:15:45;;;;;;;3.65;2.20;;;20.60;57.90;;;;;;4910425;28;92912;-63
2022/06/02 03:18:11;;;;;;;2.90;2.00;;;20.60;57.80;;;;;;4910979;28;94016;-63
2022/06/02 03:20:48;;;;;;;2.78;2.10;;;20.60;57.80;;;;;;4910574;28;92604;-63
2022/06/02 03:23:36;;;;;;;2.55;1.90;;;20.60;57.90;;;;;;4909736;28;93430;-65
2022/06/02 03:26:30;;;;;;;3.00;2.05;;;20.60;58.00;;;;;;4910592;28;92663;-63
2022/06/02 03:29:16;;;;;;;2.85;2.05;;;20.60;57.90;;;;;;4910796;28;93001;-63
2022/06/02 03:32:03;;;;;;;2.60;1.98;;;20.60;57.80;;;;;;4909689;28;93035;-63
2022/06/02 03:34:50;;;;;;;2.42;2.00;;;20.60;57.90;;;;;;4909453;28;92695;-62
2022/06/02 03:37:37;;;;;;;2.90;1.98;;;20.60;57.90;;;;;;4898593;28;92859;-65
2022/06/02 03:40:09;;;;;;;2.55;1.92;;;20.60;57.80;;;;;;4909318;28;92580;-64
2022/06/02 03:42:51;;;;;;;1.90;1.70;;;20.60;57.90;;;;;;4909676;28;92001;-63
2022/06/02 03:45:28;;;;;;;2.50;1.90;;;20.60;57.80;;;;;;4909216;28;93700;-63
2022/06/02 03:48:08;;;;;;;2.70;1.92;;;20.60;57.80;;;;;;4908581;28;93912;-63
2022/06/02 03:50:52;;;;;;;3.58;2.30;;;20.60;57.80;;;;;;4908784;28;92290;-64
2022/06/02 03:53:33;;;;;;;2.70;1.80;;;20.60;57.80;;;;;;4909998;28;92854;-64
2022/06/02 03:56:19;;;;;;;2.75;2.05;;;20.50;57.70;;;;;;4909361;28;93733;-63
2022/06/02 03:59:06;;;;;;;2.28;1.80;;;20.50;57.60;;;;;;4908246;28;93223;-65
2022/06/02 04:01:41;;;;;;;3.83;2.33;;;20.50;57.70;;;;;;4909786;28;93209;-63
2022/06/02 04:04:29;;;;;;;2.85;1.83;;;20.50;57.70;;;;;;4910131;28;92208;-64
2022/06/02 04:07:15;;;;;;;3.50;2.35;;;20.50;58.40;;;;;;4909653;28;93511;-63
2022/06/02 04:09:41;;;;;;;2.38;1.85;;;20.50;57.70;;;;;;4909225;28;93129;-63
2022/06/02 04:15:46;;;;;;;2.88;1.88;;;20.50;57.50;;;;;;4909007;28;92572;-63
2022/06/02 04:18:18;;;;;;;1.90;1.60;;;20.50;57.60;;;;;;4908161;28;93302;-63
2022/06/02 04:20:51;;;;;;;2.30;1.70;;;20.50;57.60;;;;;;4908374;28;93732;-63
2022/06/02 04:23:35;;;;;;;2.38;1.80;;;20.50;57.50;;;;;;4909733;28;91977;-64
2022/06/02 04:26:45;;;;;;;2.25;1.90;;;20.50;57.70;;;;;;4909510;28;92546;-65
2022/06/02 04:29:17;;;;;;;2.35;1.83;;;20.50;57.60;;;;;;4906292;28;93369;-63
2022/06/02 04:32:01;;;;;;;1.98;1.60;;;20.50;57.60;;;;;;4907537;28;95503;-63
2022/06/02 04:34:45;;;;;;;2.22;1.65;;;20.50;57.50;;;;;;4909183;28;92170;-63
2022/06/02 04:37:27;;;;;;;2.25;1.70;;;20.50;57.50;;;;;;4908019;28;92643;-63
2022/06/02 04:40:11;;;;;;;2.58;1.75;;;20.50;57.50;;;;;;4909004;28;94160;-64
2022/06/02 04:42:56;;;;;;;2.70;1.33;;;20.60;57.30;;;;;;4909259;28;93976;-63
2022/06/02 04:45:35;;;;;;;1.80;1.50;;;20.60;57.40;;;;;;4907830;28;92165;-63
2022/06/02 04:48:34;;;;;;;2.20;1.73;;;20.60;57.30;;;;;;4908520;28;92653;-63
2022/06/02 04:51:10;;;;;;;2.20;1.83;;;20.60;57.30;;;;;;4908292;28;93173;-64
2022/06/02 04:54:04;;;;;;;2.72;1.88;;;20.60;57.30;;;;;;4908732;28;92970;-65
2022/06/02 04:56:46;;;;;;;2.00;1.70;;;20.60;57.30;;;;;;4909768;28;93661;-63
2022/06/02 04:59:35;;;;;;;1.98;1.77;;;20.60;57.40;;;;;;4909783;28;92366;-64
2022/06/02 05:02:13;;;;;;;;;;;20.60;57.40;;;;;;4909850;28;93221;-64
2022/06/02 05:05:00;;;;;;;2.10;1.80;;;20.60;57.40;;;;;;4908861;28;95344;-65
2022/06/02 05:07:36;;;;;;;2.60;1.60;;;20.70;57.40;;;;;;4907390;28;94030;-63
2022/06/02 05:10:20;;;;;;;1.85;1.48;;;20.60;57.40;;;;;;4908752;28;92964;-63
2022/06/02 05:13:05;;;;;;;2.47;1.95;;;20.70;57.60;;;;;;4908852;28;92986;-63
2022/06/02 05:15:57;;;;;;;2.08;1.40;;;20.70;57.50;;;;;;4907781;28;95309;-64
2022/06/02 05:18:46;;;;;;;2.10;1.60;;;20.60;57.50;;;;;;4909128;28;92976;-65
2022/06/02 05:22:08;;;;;;;2.72;1.75;;;20.70;57.60;;;;;;4908752;28;92981;-64
2022/06/02 05:24:51;;;;;;;2.10;1.90;;;20.70;57.70;;;;;;4870945;28;93098;-63
2022/06/02 05:27:52;;;;;;;2.60;1.70;;;20.70;57.80;;;;;;4871041;28;92093;-64
2022/06/02 05:30:39;;;;;;;1.92;1.60;;;20.70;57.80;;;;;;4848235;29;93387;-64
2022/06/02 05:33:25;;;;;;;1.60;1.25;;;20.70;57.90;;;;;;4907770;28;92618;-63
2022/06/02 05:35:51;;;;;;;2.47;1.63;;;20.70;57.80;;;;;;4910583;28;93545;-63
2022/06/02 05:38:22;;;;;;;2.03;1.63;;;20.70;57.80;;;;;;4910495;28;93646;-63
2022/06/02 05:41:14;;;;;;;1.65;1.30;;;20.70;57.90;;;;;;4909041;28;93476;-64
2022/06/02 05:43:48;;;;;;;3.05;1.73;;;20.80;57.90;;;;;;4911383;28;92114;-63
2022/06/02 05:46:55;;;;;;;1.83;1.52;;;20.80;57.90;;;;;;4910994;28;93442;-63
2022/06/02 05:49:44;;;;;;;2.75;1.70;;;20.80;57.90;;;;;;4910981;28;93767;-63
2022/06/02 05:52:38;;;;;;;2.22;1.75;;;20.80;58.00;;;;;;4892361;28;92648;-63
2022/06/02 05:55:06;;;;;;;2.13;1.40;;;20.80;58.00;;;;;;4910643;28;91452;-65
2022/06/02 05:57:45;;;;;;;2.08;1.60;;;20.80;58.00;;;;;;4910679;28;93123;-64
2022/06/02 06:00:28;;;;;;;2.10;1.57;;;20.80;58.20;;;;;;4911413;28;93003;-63
2022/06/02 06:03:18;;;;;;;2.05;1.60;;;20.80;58.10;;;;;;4911491;28;93741;-64
2022/06/02 06:05:56;;;;;;;2.13;1.70;;;20.80;58.30;;;;;;4911394;28;92887;-64
2022/06/02 06:09:02;;;;;;;2.70;2.03;;;20.80;58.40;;;;;;4910397;28;94527;-65
2022/06/02 06:11:47;;;;;;;1.70;1.50;;;20.80;58.20;;;;;;4911366;28;93413;-63
2022/06/02 06:14:29;;;;;;;1.90;1.70;;;20.80;58.30;;;;;;4911275;28;93032;-63
2022/06/02 06:17:17;;;;;;;2.08;1.30;;;20.80;58.40;;;;;;4911448;28;92487;-63
2022/06/02 06:19:57;;;;;;;1.98;1.60;;;20.80;58.30;;;;;;4911003;28;92705;-63
2022/06/02 06:22:50;;;;;;;2.08;1.60;;;20.90;58.40;;;;;;4911261;28;93371;-63
2022/06/02 06:25:31;;;;;;;2.25;1.80;;;20.90;57.90;;;;;;4910630;28;92224;-64
2022/06/02 06:28:16;;;;;;;2.15;1.50;;;20.90;57.90;;;;;;4910662;28;92986;-63
2022/06/02 06:30:56;;;;;;;2.35;1.90;;;20.90;57.80;;;;;;4909792;28;98675;-63
2022/06/02 06:33:39;;;;;;;4.28;1.90;;;20.90;58.20;;;;;;4910469;28;93887;-65
2022/06/02 06:36:23;;;;;;;4.72;2.53;;;20.90;57.70;;;;;;4911219;28;92341;-64
2022/06/02 06:39:29;;;;;;;6.68;2.53;;;20.90;57.40;;;;;;4910854;28;92518;-65
2022/06/02 06:42:30;;;;;;;7.05;2.03;;;20.90;57.50;;;;;;4910386;28;93958;-65
2022/06/02 06:45:14;;;;;;;9.55;4.72;;;20.90;57.40;;;;;;4911625;28;93100;-64
2022/06/02 06:47:53;;;;;;;8.40;5.65;;;20.90;54.60;;;;;;4912157;28;93022;-64
2022/06/02 06:50:29;;;;;;;6.55;4.85;;;20.80;53.80;;;;;;4911001;28;91891;-64
2022/06/02 06:53:10;;;;;;;6.32;5.05;;;20.80;54.00;;;;;;4910344;28;93029;-63
2022/06/02 06:56:04;;;;;;;7.18;4.20;;;20.80;54.20;;;;;;4904505;28;96546;-65
2022/06/02 06:58:58;;;;;;;7.53;5.32;;;20.80;54.80;;;;;;4909129;28;93649;-65
2022/06/02 07:01:51;;;;;;;8.63;5.35;;;20.80;52.50;;;;;;4909577;28;93129;-64
2022/06/02 07:04:48;;;;;;;6.32;4.55;;;20.80;53.00;;;;;;4908968;28;93246;-64
2022/06/02 07:07:31;;;;;;;8.20;5.50;;;20.80;53.50;;;;;;4903269;28;92301;-65
2022/06/02 07:10:07;;;;;;;8.48;5.13;;;20.80;51.90;;;;;;4908502;28;92846;-64
2022/06/02 07:12:53;;;;;;;9.00;4.97;;;20.80;52.70;;;;;;4908652;28;92827;-64
2022/06/02 07:15:51;;;;;;;6.35;4.30;;;20.80;52.70;;;;;;4885562;28;92615;-63
2022/06/02 07:18:35;;;;;;;6.85;3.85;;;20.90;52.50;;;;;;4908752;28;94672;-63
2022/06/02 07:21:19;;;;;;;15.93;5.60;;;20.80;53.20;;;;;;4905703;28;92668;-64
2022/06/02 07:24:11;;;;;;;9.70;3.55;;;20.90;53.20;;;;;;4907693;28;91963;-64
2022/06/02 07:27:10;;;;;;;7.65;3.28;;;20.80;52.90;;;;;;4907188;28;93987;-62
2022/06/02 07:30:12;;;;;;;7.78;4.72;;;20.90;52.90;;;;;;4904063;28;93833;-63
2022/06/02 07:32:38;;;;;;;20.88;5.00;;;20.90;52.60;;;;;;4906736;28;92639;-63
2022/06/02 07:35:22;;;;;;;41.55;8.55;;;20.90;52.50;;;;;;4908392;28;92550;-63
2022/06/02 07:38:25;;;;;;;30.98;9.30;;;20.90;51.70;;;;;;4908416;28;93048;-64
2022/06/02 07:41:03;;;;;;;24.77;6.50;;;20.90;51.50;;;;;;4909259;28;92596;-63
2022/06/02 07:43:51;;;;;;;24.75;7.55;;;20.90;51.90;;;;;;4909734;28;92633;-63
2022/06/02 07:46:41;;;;;;;23.02;6.53;;;20.80;51.60;;;;;;4908837;28;91787;-63
2022/06/02 07:49:16;;;;;;;23.92;6.88;;;20.80;51.60;;;;;;4909200;28;93950;-63
2022/06/02 07:51:49;;;;;;;20.50;5.13;;;20.80;51.30;;;;;;4909691;28;92990;-64
2022/06/02 07:54:22;;;;;;;19.23;5.05;;;20.90;51.40;;;;;;4909525;28;93277;-63
2022/06/02 07:56:56;;;;;;;10.93;4.55;;;20.90;50.90;;;;;;4909239;28;92500;-62
2022/06/02 07:59:42;;;;;;;17.48;5.80;;;20.90;50.90;;;;;;4909165;28;93246;-64
2022/06/02 08:02:29;;;;;;;15.60;5.55;;;20.90;52.60;;;;;;4908214;28;95074;-63
2022/06/02 08:05:22;;;;;;;14.65;5.50;;;20.90;52.40;;;;;;4908943;28;92976;-63
2022/06/02 08:08:01;;;;;;;16.52;6.22;;;20.90;52.40;;;;;;4906558;28;92434;-63
2022/06/02 08:10:27;;;;;;;;;;;20.90;51.80;;;;;;4905518;28;96110;-62
2022/06/02 08:13:14;;;;;;;16.48;5.25;;;20.90;51.80;;;;;;4909286;28;92378;-62
2022/06/02 08:16:05;;;;;;;12.73;4.25;;;20.90;51.70;;;;;;4908579;28;92647;-63
2022/06/02 08:19:04;;;;;;;12.73;4.35;;;20.90;52.00;;;;;;4906730;28;92670;-63
2022/06/02 08:21:46;;;;;;;15.15;4.90;;;20.90;52.00;;;;;;4907189;28;94145;-62
2022/06/02 08:24:37;;;;;;;11.93;5.18;;;20.90;52.10;;;;;;4908583;28;93303;-62
2022/06/02 08:27:21;;;;;;;11.30;4.38;;;20.90;51.90;;;;;;4908628;28;92743;-62
2022/06/02 08:30:08;;;;;;;8.88;3.78;;;20.90;51.60;;;;;;4907887;28;92757;-63
2022/06/02 08:33:03;;;;;;;9.68;4.10;;;20.90;51.70;;;;;;4908448;28;93713;-63
2022/06/02 08:35:38;;;;;;;8.55;4.25;;;20.90;52.10;;;;;;4907601;28;92931;-62
2022/06/02 08:38:46;;;;;;;8.32;3.63;;;20.90;51.60;;;;;;4908813;28;93104;-64
2022/06/02 08:41:36;;;;;;;6.60;3.13;;;20.90;51.20;;;;;;4909348;28;91931;-63
2022/06/02 08:44:39;;;;;;;8.30;3.40;;;20.90;51.30;;;;;;4907424;28;92983;-62
2022/06/02 08:47:42;;;;;;;7.45;2.85;;;20.90;51.40;;;;;;4907443;28;93003;-62
2022/06/02 08:50:23;;;;;;;7.65;3.33;;;20.80;51.10;;;;;;4908517;28;93359;-63
2022/06/02 08:53:41;;;;;;;8.55;3.90;;;20.90;50.80;;;;;;4908577;28;92919;-62
2022/06/02 08:56:34;;;;;;;9.67;3.07;;;20.90;51.10;;;;;;4902001;28;93134;-64
2022/06/02 08:59:35;;;;;;;8.57;3.78;;;20.90;51.30;;;;;;4907994;28;94332;-63
2022/06/02 09:02:36;;;;;;;12.57;4.43;;;20.90;51.00;;;;;;4886372;28;92263;-63
2022/06/02 09:05:19;;;;;;;8.88;2.92;;;20.90;51.10;;;;;;4908722;28;92623;-64
2022/06/02 09:08:03;;;;;;;7.43;3.08;;;21.00;50.90;;;;;;4909075;28;92461;-63
2022/06/02 09:10:41;;;;;;;11.00;3.28;;;21.00;51.00;;;;;;4907848;28;92877;-64
2022/06/02 09:13:15;;;;;;;7.30;2.40;;;21.00;51.80;;;;;;4908499;28;92509;-63
2022/06/02 09:15:49;;;;;;;10.07;2.75;;;21.00;52.20;;;;;;4908226;28;92593;-62
2022/06/02 09:18:43;;;;;;;10.73;3.05;;;21.00;51.90;;;;;;4908289;28;94270;-62
2022/06/02 09:21:25;;;;;;;6.53;2.60;;;21.00;51.70;;;;;;4914736;28;92984;-63
2022/06/02 09:24:13;;;;;;;9.48;3.30;;;21.00;52.00;;;;;;4907064;28;92110;-63
2022/06/02 09:27:02;;;;;;;7.63;2.90;;;21.00;51.90;;;;;;4907640;28;92427;-64
2022/06/02 09:29:54;;;;;;;;;;;21.00;51.70;;;;;;4908876;28;93593;-62
2022/06/02 09:32:53;;;;;;;5.88;2.85;;;21.00;51.50;;;;;;4909527;28;92692;-64
2022/06/02 09:35:21;;;;;;;6.13;2.42;;;21.00;51.20;;;;;;4908548;28;92045;-63
2022/06/02 09:38:09;;;;;;;7.85;2.42;;;21.00;50.80;;;;;;4908688;28;92181;-64
2022/06/02 09:40:57;;;;;;;4.57;2.43;;;21.00;50.90;;;;;;4907820;28;93089;-63
2022/06/02 09:43:58;;;;;;;5.55;2.50;;;21.00;51.10;;;;;;4907869;28;93178;-63
2022/06/02 09:46:48;;;;;;;6.50;2.45;;;21.10;51.80;;;;;;4907458;28;93325;-63
2022/06/02 09:49:26;;;;;;;6.22;2.70;;;21.00;52.40;;;;;;4907722;28;92849;-63
2022/06/02 09:51:55;;;;;;;6.22;2.70;;;21.00;53.20;;;;;;4907680;28;93487;-63
2022/06/02 09:54:30;;;;;;;6.68;2.38;;;21.10;53.70;;;;;;4905800;28;94175;-64
2022/06/02 10:00:44;;;;;;;4.72;2.35;;;21.00;54.30;;;;;;4906431;28;92482;-64
2022/06/02 10:03:12;;;;;;;5.88;2.05;;;21.10;53.60;;;;;;4906629;28;93310;-63
2022/06/02 10:05:49;;;;;;;7.25;2.40;;;21.00;53.50;;;;;;4908169;28;94473;-64
2022/06/02 10:08:21;;;;;;;19.80;13.68;;;21.00;53.80;;;;;;4908325;28;92439;-64
2022/06/02 10:11:14;;;;;;;13.98;8.82;;;21.00;53.80;;;;;;4909094;28;92622;-63
2022/06/02 10:13:52;;;;;;;15.23;8.98;;;21.00;53.70;;;;;;4909704;28;94096;-64
2022/06/02 10:17:00;;;;;;;15.70;8.18;;;21.00;53.40;;;;;;4909415;28;94539;-63
2022/06/02 10:19:47;;;;;;;12.32;7.32;;;21.00;53.10;;;;;;4909890;28;92605;-63
2022/06/02 10:22:26;;;;;;;12.32;7.55;;;21.10;53.00;;;;;;4907526;28;92553;-63
2022/06/02 10:25:25;;;;;;;17.97;7.23;;;21.00;52.80;;;;;;4910813;28;92451;-63
2022/06/02 10:28:10;;;;;;;11.70;4.30;;;21.00;52.30;;;;;;4900631;28;92724;-64
2022/06/02 10:31:02;;;;;;;9.35;4.97;;;21.10;51.70;;;;;;4909799;28;93144;-63
2022/06/02 10:33:56;;;;;;;6.75;4.47;;;21.10;52.70;;;;;;4910008;28;91587;-63
2022/06/02 10:37:07;;;;;;;10.68;5.55;;;21.10;51.00;;;;;;4909293;28;93472;-63
2022/06/02 10:40:05;;;;;;;10.23;5.78;;;21.10;50.70;;;;;;4880693;28;101676;-63
2022/06/02 10:42:51;;;;;;;11.23;5.22;;;21.00;50.60;;;;;;4902233;28;93245;-63
2022/06/02 10:45:32;;;;;;;8.85;4.88;;;21.00;50.70;;;;;;4907608;28;92466;-64
2022/06/02 10:48:37;;;;;;;9.02;4.93;;;21.00;49.80;;;;;;4910144;28;93063;-63
2022/06/02 10:51:51;;;;;;;13.60;4.45;;;21.00;49.80;;;;;;4910657;28;93152;-63
2022/06/02 10:54:31;;;;;;;7.75;4.55;;;21.00;49.40;;;;;;4890036;28;93097;-64
2022/06/02 10:57:18;;;;;;;8.40;4.15;;;21.00;49.30;;;;;;4908391;28;93034;-63
2022/06/02 10:59:56;;;;;;;9.98;3.80;;;21.00;49.00;;;;;;4910256;28;93227;-63
2022/06/02 11:03:07;;;;;;;8.02;3.45;;;21.00;49.40;;;;;;4910844;28;93369;-64
2022/06/02 11:06:13;;;;;;;6.57;3.40;;;21.00;48.60;;;;;;4910209;28;92837;-63
2022/06/02 11:09:13;;;;;;;6.25;3.20;;;21.00;48.90;;;;;;4916182;28;92734;-63
2022/06/02 11:11:45;;;;;;;8.18;3.53;;;21.00;49.00;;;;;;4909500;28;94393;-64
2022/06/02 11:14:58;;;;;;;9.82;3.47;;;21.00;49.30;;;;;;4910610;28;93845;-63
2022/06/02 11:17:57;;;;;;;13.27;3.50;;;21.00;49.40;;;;;;4910379;28;93054;-62
2022/06/02 11:20:41;;;;;;;8.52;3.38;;;21.00;49.20;;;;;;4907406;28;92604;-63
2022/06/02 11:23:09;;;;;;;10.73;4.00;;;21.00;49.50;;;;;;4909963;28;92622;-63
2022/06/02 11:26:02;;;;;;;14.38;3.35;;;21.10;48.80;;;;;;4910002;28;92400;-64
2022/06/02 11:28:40;;;;;;;7.88;3.22;;;21.10;49.70;;;;;;4910716;28;93242;-64
2022/06/02 11:31:45;;;;;;;7.10;3.22;;;21.00;49.60;;;;;;4908213;28;91851;-64
2022/06/02 11:34:16;;;;;;;10.82;2.40;;;21.00;49.10;;;;;;4909903;28;93347;-63
2022/06/02 11:36:51;;;;;;;7.70;2.95;;;21.00;49.50;;;;;;4909798;28;92449;-64
2022/06/02 11:39:46;;;;;;;11.27;2.95;;;21.00;49.30;;;;;;4909616;28;93254;-63
2022/06/02 11:42:34;;;;;;;8.35;3.15;;;21.00;48.80;;;;;;4910046;28;92700;-63
2022/06/02 11:45:09;;;;;;;6.50;2.97;;;21.00;49.60;;;;;;4906555;28;95862;-63
2022/06/02 11:47:52;;;;;;;10.40;3.05;;;21.00;49.80;;;;;;4906304;28;95249;-62
2022/06/02 11:50:33;;;;;;;8.45;2.90;;;21.00;50.10;;;;;;4909632;28;92845;-64
2022/06/02 11:53:17;;;;;;;10.00;2.53;;;21.00;49.70;;;;;;4909615;28;92060;-63
2022/06/02 11:55:53;;;;;;;8.57;2.63;;;21.00;49.60;;;;;;4909651;28;93226;-64
2022/06/02 11:58:18;;;;;;;7.60;2.80;;;21.00;49.30;;;;;;4908374;28;92881;-64
2022/06/02 12:01:05;;;;;;;11.00;2.30;;;21.00;49.50;;;;;;4908399;28;92547;-64
2022/06/02 12:03:45;;;;;;;6.35;2.10;;;21.00;48.90;;;;;;4909472;28;92956;-64
2022/06/02 12:06:27;;;;;;;7.53;2.75;;;21.00;48.90;;;;;;4908425;28;95075;-63
2022/06/02 12:09:30;;;;;;;11.57;2.75;;;21.00;48.50;;;;;;4908560;28;93855;-63
2022/06/02 12:12:14;;;;;;;13.63;2.90;;;21.00;48.70;;;;;;4903811;28;92097;-63
2022/06/02 12:14:40;;;;;;;21.35;5.65;;;21.00;48.70;;;;;;4903384;28;93711;-63
2022/06/02 12:17:41;;;;;;;15.32;3.88;;;21.00;48.00;;;;;;4908311;28;93121;-63
2022/06/02 12:20:13;;;;;;;19.13;3.83;;;21.00;48.20;;;;;;4907459;28;93343;-63
2022/06/02 12:23:13;;;;;;;16.30;4.07;;;21.00;48.10;;;;;;4907684;28;93165;-63
2022/06/02 12:25:38;;;;;;;13.40;4.40;;;21.00;48.20;;;;;;4906623;28;91913;-63
2022/06/02 12:28:34;;;;;;;12.77;3.67;;;21.00;48.10;;;;;;4907064;28;93163;-64
2022/06/02 12:31:31;;;;;;;17.83;4.00;;;21.00;48.10;;;;;;4906740;28;92811;-63
2022/06/02 12:34:23;;;;;;;13.15;3.30;;;21.00;48.00;;;;;;4907201;28;93584;-63
2022/06/02 12:37:19;;;;;;;12.45;3.60;;;21.00;48.30;;;;;;4907312;28;92279;-63
2022/06/02 12:40:14;;;;;;;11.98;3.33;;;21.00;48.50;;;;;;4907351;28;92569;-64
2022/06/02 12:42:53;;;;;;;10.90;3.22;;;21.00;48.50;;;;;;4907355;28;92385;-63
2022/06/02 12:45:31;;;;;;;11.75;3.72;;;21.00;48.10;;;;;;4906870;28;92722;-63
2022/06/02 12:48:34;;;;;;;7.82;2.75;;;21.00;48.30;;;;;;4903486;28;93862;-63
2022/06/02 12:51:25;;;;;;;10.70;2.70;;;21.00;48.20;;;;;;4906152;28;93267;-63
2022/06/02 12:54:28;;;;;;;10.13;2.85;;;21.00;48.00;;;;;;4908825;28;92317;-63
2022/06/02 12:57:23;;;;;;;8.43;2.50;;;21.00;47.80;;;;;;4908907;28;92580;-63
2022/06/02 12:59:55;;;;;;;8.88;2.58;;;21.00;47.80;;;;;;4908832;28;92762;-63
2022/06/02 13:02:45;;;;;;;11.95;2.53;;;21.00;47.60;;;;;;4908411;28;93784;-63
2022/06/02 13:05:29;;;;;;;8.70;2.63;;;21.00;47.40;;;;;;4908463;28;93166;-62
2022/06/02 13:08:21;;;;;;;7.05;2.22;;;21.00;48.50;;;;;;4908655;28;93265;-63
2022/06/02 13:10:50;;;;;;;6.93;2.35;;;21.00;48.00;;;;;;4903028;28;92102;-63
2022/06/02 13:13:49;;;;;;;7.22;1.80;;;21.00;47.10;;;;;;4908645;28;93166;-63
2022/06/02 13:16:45;;;;;;;5.15;1.95;;;21.00;47.00;;;;;;4909053;28;92803;-63
2022/06/02 13:19:36;;;;;;;6.28;1.85;;;21.00;46.90;;;;;;4908808;28;92504;-63
2022/06/02 13:22:39;;;;;;;7.57;2.05;;;21.00;47.20;;;;;;4909125;28;92392;-65
2022/06/02 13:25:20;;;;;;;7.60;2.15;;;21.00;46.90;;;;;;4909008;28;93201;-63
2022/06/02 13:27:54;;;;;;;4.88;2.00;;;21.00;47.30;;;;;;4908633;28;92996;-63
2022/06/02 13:30:28;;;;;;;5.20;1.98;;;21.00;46.80;;;;;;4908226;28;93999;-63
2022/06/02 13:33:12;;;;;;;10.07;2.10;;;21.00;46.60;;;;;;4905117;28;92842;-63
2022/06/02 13:35:41;;;;;;;7.63;2.08;;;21.00;47.00;;;;;;4907271;28;93208;-63
2022/06/02 13:38:40;;;;;;;3.95;1.73;;;21.00;47.20;;;;;;4907440;28;92622;-64
2022/06/02 13:41:43;;;;;;;3.70;1.70;;;21.00;46.90;;;;;;4902955;28;93891;-64
2022/06/02 13:44:42;;;;;;;2.67;1.60;;;21.00;46.90;;;;;;4909614;28;92992;-63
2022/06/02 13:47:36;;;;;;;3.88;1.35;;;21.00;46.80;;;;;;4908735;28;93705;-63
2022/06/02 13:50:31;;;;;;;3.35;1.55;;;21.00;46.80;;;;;;4910013;28;94389;-64
2022/06/02 13:53:27;;;;;;;6.03;1.85;;;21.00;46.70;;;;;;4910796;28;92720;-63
2022/06/02 13:59:23;;;;;;;3.53;1.50;;;21.00;47.00;;;;;;4910296;28;93903;-63
2022/06/02 14:02:13;;;;;;;3.67;1.75;;;21.00;46.90;;;;;;4910642;28;93811;-64
2022/06/02 14:04:54;;;;;;;7.60;1.75;;;21.00;46.90;;;;;;4911514;28;92469;-62
2022/06/02 14:07:35;;;;;;;8.40;2.33;;;21.00;47.30;;;;;;4911202;28;92353;-64
2022/06/02 14:10:18;;;;;;;1.85;1.35;;;21.00;48.40;;;;;;4910985;28;93126;-63
2022/06/02 14:13:20;;;;;;;4.30;1.42;;;21.00;47.80;;;;;;4910935;28;93501;-63
2022/06/02 14:16:02;;;;;;;3.88;1.20;;;21.00;46.60;;;;;;4911291;28;91940;-63
2022/06/02 14:18:45;;;;;;;3.30;1.30;;;21.00;46.30;;;;;;4911859;28;92099;-64
2022/06/02 14:21:44;;;;;;;6.28;1.63;;;21.00;46.30;;;;;;4910669;28;93248;-63
2022/06/02 14:24:23;;;;;;;4.28;1.35;;;21.10;46.60;;;;;;4910770;28;92897;-63
2022/06/02 14:26:58;;;;;;;3.90;1.30;;;21.00;46.50;;;;;;4910717;28;93423;-63
2022/06/02 14:29:49;;;;;;;3.60;1.10;;;21.00;46.60;;;;;;4911475;28;92583;-63
2022/06/02 14:32:29;;;;;;;4.32;1.25;;;21.00;46.90;;;;;;4910943;28;92935;-63
2022/06/02 14:35:13;;;;;;;4.40;1.10;;;21.10;47.00;;;;;;4910486;28;92801;-64